createdAt,value
2018-04-02T00:02:26.603Z,5.53
2018-04-02T00:04:53.915Z,6.00
2018-04-02T00:07:21.215Z,5.40
2018-04-02T00:09:48.491Z,5.50
2018-04-02T00:12:15.775Z,6.03
2018-04-02T00:14:43.044Z,5.00
2018-04-02T00:17:10.332Z,5.67
2018-04-02T00:19:37.600Z,5.07
2018-04-02T00:22:04.894Z,5.07
2018-04-02T00:24:32.165Z,4.37
2018-04-02T00:26:59.460Z,4.33
2018-04-02T00:29:26.718Z,5.10
2018-04-02T00:31:54.010Z,6.07
2018-04-02T00:34:21.288Z,5.00
2018-04-02T00:36:48.581Z,5.17
2018-04-02T00:39:15.856Z,5.20
2018-04-02T00:41:43.134Z,5.50
2018-04-02T00:44:10.418Z,4.50
2018-04-02T00:46:37.706Z,4.67
2018-04-02T00:49:04.980Z,4.60
2018-04-02T00:51:32.326Z,4.80
2018-04-02T00:54:00.289Z,4.50
2018-04-02T00:56:27.562Z,4.80
2018-04-02T00:58:54.843Z,4.30
2018-04-02T01:01:22.140Z,4.07
2018-04-02T01:03:49.453Z,3.80
2018-04-02T01:06:16.740Z,5.00
2018-04-02T01:08:44.036Z,4.77
2018-04-02T01:11:11.299Z,4.13
2018-04-02T01:13:38.574Z,4.43
2018-04-02T01:16:05.851Z,5.00
2018-04-02T01:18:33.128Z,4.47
2018-04-02T01:21:00.398Z,4.77
2018-04-02T01:23:27.695Z,4.63
2018-04-02T01:25:54.980Z,4.40
2018-04-02T01:28:22.240Z,4.60
2018-04-02T01:30:49.521Z,4.63
2018-04-02T01:33:16.807Z,4.50
2018-04-02T01:35:44.091Z,4.00
2018-04-02T01:38:11.355Z,4.97
2018-04-02T01:40:38.634Z,4.77
2018-04-02T01:43:05.908Z,5.33
2018-04-02T01:45:33.210Z,4.77
2018-04-02T01:48:00.510Z,5.40
2018-04-02T01:50:27.806Z,4.40
2018-04-02T01:52:55.092Z,4.50
2018-04-02T01:55:22.359Z,4.50
2018-04-02T01:57:49.657Z,5.10
2018-04-02T02:00:17.433Z,3.80
2018-04-02T02:02:44.715Z,4.70
2018-04-02T02:05:11.986Z,4.67
2018-04-02T02:07:39.276Z,3.90
2018-04-02T02:10:06.553Z,5.60
2018-04-02T02:12:33.840Z,4.80
2018-04-02T02:15:01.216Z,4.67
2018-04-02T02:17:28.495Z,4.70
2018-04-02T02:19:55.790Z,4.90
2018-04-02T02:22:23.054Z,5.40
2018-04-02T02:24:50.332Z,4.30
2018-04-02T02:27:18.424Z,4.47
2018-04-02T02:29:45.689Z,4.23
2018-04-02T02:32:12.969Z,5.43
2018-04-02T02:34:40.250Z,5.10
2018-04-02T02:37:08.190Z,4.37
2018-04-02T02:39:35.449Z,4.33
2018-04-02T02:42:03.704Z,5.43
2018-04-02T02:44:30.976Z,5.10
2018-04-02T02:46:58.247Z,4.30
2018-04-02T02:49:25.528Z,4.60
2018-04-02T02:51:52.833Z,5.20
2018-04-02T02:54:20.901Z,5.50
2018-04-02T02:56:48.186Z,4.73
2018-04-02T02:59:15.517Z,4.90
2018-04-02T03:01:42.783Z,5.00
2018-04-02T03:04:10.074Z,5.13
2018-04-02T03:06:38.132Z,5.30
2018-04-02T03:09:05.405Z,5.13
2018-04-02T03:11:32.682Z,4.87
2018-04-02T03:13:59.971Z,4.60
2018-04-02T03:16:27.258Z,5.10
2018-04-02T03:18:54.550Z,4.93
2018-04-02T03:21:21.854Z,4.83
2018-04-02T03:23:49.134Z,5.47
2018-04-02T03:26:16.764Z,4.40
2018-04-02T03:28:44.015Z,4.57
2018-04-02T03:31:11.297Z,4.70
2018-04-02T03:33:38.570Z,4.20
2018-04-02T03:36:05.855Z,5.93
2018-04-02T03:38:33.167Z,5.83
2018-04-02T03:41:00.450Z,5.23
2018-04-02T03:43:27.723Z,5.80
2018-04-02T03:45:55.010Z,4.87
2018-04-02T03:48:22.303Z,5.17
2018-04-02T03:50:49.589Z,5.40
2018-04-02T03:53:16.876Z,5.07
2018-04-02T03:55:44.192Z,4.80
2018-04-02T03:58:11.459Z,6.10
2018-04-02T04:00:38.725Z,5.80
2018-04-02T04:03:06.015Z,5.17
2018-04-02T04:05:33.289Z,4.93
2018-04-02T04:08:00.566Z,4.90
2018-04-02T04:10:27.839Z,5.87
2018-04-02T04:12:55.131Z,5.60
2018-04-02T04:15:22.439Z,5.00
2018-04-02T04:17:49.724Z,5.60
2018-04-02T04:20:17.260Z,5.20
2018-04-02T04:22:44.531Z,5.07
2018-04-02T04:25:11.803Z,5.33
2018-04-02T04:27:39.116Z,5.10
2018-04-02T04:30:06.395Z,6.23
2018-04-02T04:32:33.691Z,5.47
2018-04-02T04:35:00.958Z,5.20
2018-04-02T04:37:28.249Z,5.90
2018-04-02T04:39:55.548Z,6.13
2018-04-02T04:42:22.826Z,5.70
2018-04-02T04:44:50.099Z,6.60
2018-04-02T04:47:17.578Z,6.03
2018-04-02T04:49:44.860Z,5.90
2018-04-02T04:52:12.157Z,6.20
2018-04-02T04:54:39.425Z,5.60
2018-04-02T04:57:06.705Z,5.40
2018-04-02T04:59:33.989Z,6.00
2018-04-02T05:02:01.280Z,5.10
2018-04-02T05:04:28.569Z,5.50
2018-04-02T05:06:55.847Z,5.00
2018-04-02T05:09:23.142Z,5.87
2018-04-02T05:11:50.409Z,5.23
2018-04-02T05:14:17.702Z,5.43
2018-04-02T05:16:44.981Z,5.90
2018-04-02T05:19:12.264Z,6.27
2018-04-02T05:21:39.544Z,5.90
2018-04-02T05:24:06.810Z,6.50
2018-04-02T05:26:34.091Z,6.10
2018-04-02T05:29:01.374Z,5.27
2018-04-02T05:31:28.664Z,6.50
2018-04-02T05:33:55.934Z,6.00
2018-04-02T05:36:23.228Z,6.17
2018-04-02T05:38:50.576Z,6.13
2018-04-02T05:41:18.858Z,7.10
2018-04-02T05:43:46.167Z,5.63
2018-04-02T05:46:13.426Z,6.00
2018-04-02T05:48:40.722Z,5.57
2018-04-02T05:51:07.996Z,5.67
2018-04-02T05:53:35.281Z,5.67
2018-04-02T05:56:02.570Z,5.60
2018-04-02T05:58:29.857Z,5.03
2018-04-02T06:00:57.160Z,5.17
2018-04-02T06:03:24.420Z,4.80
2018-04-02T06:05:51.714Z,5.17
2018-04-02T06:08:18.994Z,5.80
2018-04-02T06:10:46.285Z,5.00
2018-04-02T06:13:13.551Z,5.00
2018-04-02T06:15:40.827Z,5.60
2018-04-02T06:18:08.161Z,5.67
2018-04-02T06:20:35.439Z,5.20
2018-04-02T06:23:02.727Z,5.20
2018-04-02T06:25:30.019Z,5.97
2018-04-02T06:27:57.314Z,5.00
2018-04-02T06:30:24.636Z,4.80
2018-04-02T06:32:51.974Z,4.93
2018-04-02T06:35:19.269Z,5.30
2018-04-02T06:37:46.560Z,4.53
2018-04-02T06:40:13.865Z,4.70
2018-04-02T06:42:41.140Z,4.10
2018-04-02T06:45:08.444Z,4.43
2018-04-02T06:47:37.073Z,4.67
2018-04-02T06:50:05.347Z,4.90
2018-04-02T06:52:32.773Z,4.60
2018-04-02T06:55:00.064Z,5.20
2018-04-02T06:57:27.343Z,3.37
2018-04-02T06:59:54.667Z,5.10
2018-04-02T07:02:21.981Z,4.33
2018-04-02T07:04:49.246Z,3.57
2018-04-02T07:07:16.538Z,3.77
2018-04-02T07:09:43.815Z,3.23
2018-04-02T07:12:11.113Z,3.60
2018-04-02T07:14:38.377Z,5.50
2018-04-02T07:17:05.673Z,2.93
2018-04-02T07:19:32.934Z,3.03
2018-04-02T07:22:00.248Z,2.73
2018-04-02T07:24:27.526Z,2.77
2018-04-02T07:26:54.811Z,3.07
2018-04-02T07:29:22.142Z,2.50
2018-04-02T07:31:49.412Z,3.17
2018-04-02T07:34:16.701Z,3.20
2018-04-02T07:36:43.995Z,2.97
2018-04-02T07:39:11.396Z,2.70
2018-04-02T07:41:38.684Z,2.73
2018-04-02T07:44:05.947Z,3.13
2018-04-02T07:46:33.230Z,4.97
2018-04-02T07:49:00.516Z,3.13
2018-04-02T07:51:27.851Z,2.80
2018-04-02T07:53:55.168Z,2.77
2018-04-02T07:56:22.510Z,2.50
2018-04-02T07:58:49.783Z,3.50
2018-04-02T08:01:17.090Z,3.47
2018-04-02T08:03:45.236Z,3.43
2018-04-02T08:06:12.591Z,2.90
2018-04-02T08:08:39.879Z,3.00
2018-04-02T08:11:07.207Z,2.63
2018-04-02T08:13:34.485Z,2.67
2018-04-02T08:16:01.770Z,2.90
2018-04-02T08:18:29.040Z,3.10
2018-04-02T08:20:56.344Z,2.40
2018-04-02T08:23:23.676Z,2.70
2018-04-02T08:25:50.988Z,3.20
2018-04-02T08:28:18.350Z,2.57
2018-04-02T08:30:45.575Z,3.00
2018-04-02T08:33:12.861Z,2.83
2018-04-02T08:35:40.186Z,2.90
2018-04-02T08:38:07.520Z,2.53
2018-04-02T08:40:34.831Z,2.60
2018-04-02T08:43:02.146Z,3.00
2018-04-02T08:45:29.428Z,3.40
2018-04-02T08:47:56.942Z,2.60
2018-04-02T08:50:24.267Z,3.43
2018-04-02T08:52:51.645Z,2.40
2018-04-02T08:55:18.898Z,2.60
2018-04-02T08:57:46.211Z,2.30
2018-04-02T09:00:13.488Z,2.90
2018-04-02T09:02:40.809Z,2.80
2018-04-02T09:05:08.108Z,2.07
2018-04-02T09:07:35.384Z,2.83
2018-04-02T09:10:02.645Z,2.10
2018-04-02T09:12:29.924Z,2.30
2018-04-02T09:14:57.209Z,2.40
2018-04-02T09:17:24.513Z,2.53
2018-04-02T09:19:52.023Z,2.10
2018-04-02T09:22:19.287Z,2.27
2018-04-02T09:24:47.532Z,2.20
2018-04-02T09:27:14.766Z,2.43
2018-04-02T09:29:42.056Z,2.80
2018-04-02T09:32:09.329Z,2.23
2018-04-02T09:34:37.331Z,3.00
2018-04-02T09:37:04.590Z,2.30
2018-04-02T09:39:31.868Z,2.37
2018-04-02T09:41:59.191Z,2.00
2018-04-02T09:44:26.549Z,2.27
2018-04-02T09:46:53.848Z,1.83
2018-04-02T09:49:21.583Z,1.53
2018-04-02T09:51:48.946Z,2.00
2018-04-02T09:54:16.211Z,1.80
2018-04-02T09:56:43.530Z,1.90
2018-04-02T09:59:10.806Z,2.27
2018-04-02T10:01:38.108Z,1.57
2018-04-02T10:04:08.123Z,1.67
2018-04-02T10:06:35.422Z,1.90
2018-04-02T10:09:02.718Z,1.40
2018-04-02T10:11:30.004Z,1.77
2018-04-02T10:13:57.283Z,1.13
2018-04-02T10:16:24.609Z,1.67
2018-04-02T10:18:51.906Z,2.17
2018-04-02T10:21:19.495Z,1.60
2018-04-02T10:23:46.867Z,2.27
2018-04-02T10:26:14.088Z,1.50
2018-04-02T10:28:41.374Z,1.63
2018-04-02T10:31:08.638Z,1.50
2018-04-02T10:33:35.903Z,1.40
2018-04-02T10:36:03.187Z,1.33
2018-04-02T10:38:30.455Z,1.20
2018-04-02T10:40:58.149Z,1.50
2018-04-02T10:43:25.460Z,1.30
2018-04-02T10:45:52.774Z,1.90
2018-04-02T10:48:20.325Z,1.43
2018-04-02T10:50:47.655Z,1.73
2018-04-02T10:53:14.936Z,2.20
2018-04-02T10:55:42.249Z,1.70
2018-04-02T10:58:09.575Z,1.20
2018-04-02T11:00:36.971Z,1.60
2018-04-02T11:03:04.249Z,1.50
2018-04-02T11:05:31.554Z,1.20
2018-04-02T11:07:59.676Z,1.83
2018-04-02T11:10:26.962Z,1.70
2018-04-02T11:12:54.799Z,1.40
2018-04-02T11:15:22.105Z,1.13
2018-04-02T11:17:49.396Z,1.40
2018-04-02T11:20:16.687Z,1.47
2018-04-02T11:22:44.878Z,1.33
2018-04-02T11:25:12.156Z,1.37
2018-04-02T11:27:39.445Z,1.30
2018-04-02T11:30:06.734Z,1.40
2018-04-02T11:32:34.000Z,1.20
2018-04-02T11:35:01.274Z,1.40
2018-04-02T11:37:28.559Z,1.13
2018-04-02T11:39:55.851Z,1.23
2018-04-02T11:42:23.224Z,1.30
2018-04-02T11:44:50.493Z,1.10
2018-04-02T11:47:17.760Z,1.40
2018-04-02T11:49:45.046Z,1.70
2018-04-02T11:52:12.784Z,1.50
2018-04-02T11:54:40.059Z,0.90
2018-04-02T11:57:07.347Z,1.20
2018-04-02T11:59:34.624Z,1.30
2018-04-02T12:02:01.904Z,1.37
2018-04-02T12:04:29.167Z,1.30
2018-04-02T12:06:56.446Z,1.10
2018-04-02T12:09:23.790Z,1.00
2018-04-02T12:11:51.031Z,1.17
2018-04-02T12:14:18.288Z,1.10
2018-04-02T12:16:45.562Z,1.50
2018-04-02T12:19:12.827Z,0.90
2018-04-02T12:21:40.126Z,0.97
2018-04-02T12:24:07.416Z,1.00
2018-04-02T12:26:34.793Z,1.03
2018-04-02T12:29:02.108Z,1.67
2018-04-02T12:31:29.387Z,1.00
2018-04-02T12:33:56.708Z,1.50
2018-04-02T12:36:23.993Z,1.13
2018-04-02T12:38:51.321Z,0.97
2018-04-02T12:41:18.574Z,1.50
2018-04-02T12:43:45.892Z,1.13
2018-04-02T12:46:13.160Z,1.43
2018-04-02T12:48:40.460Z,1.03
2018-04-02T12:51:07.726Z,1.37
2018-04-02T12:53:35.052Z,0.90
2018-04-02T12:56:02.353Z,1.27
2018-04-02T12:58:29.620Z,1.83
2018-04-02T13:00:56.895Z,1.90
2018-04-02T13:03:24.181Z,1.30
2018-04-02T13:05:51.458Z,1.80
2018-04-02T13:08:18.738Z,1.00
2018-04-02T13:10:46.032Z,1.37
2018-04-02T13:13:13.292Z,0.80
2018-04-02T13:15:40.587Z,0.70
2018-04-02T13:18:07.867Z,1.00
2018-04-02T13:20:35.759Z,0.93
2018-04-02T13:23:03.023Z,1.03
2018-04-02T13:25:30.374Z,1.13
2018-04-02T13:27:57.728Z,0.80
2018-04-02T13:30:25.008Z,2.33
2018-04-02T13:32:52.344Z,0.80
2018-04-02T13:35:19.610Z,0.70
2018-04-02T13:37:46.875Z,0.90
2018-04-02T13:40:14.914Z,0.60
2018-04-02T13:42:42.211Z,1.00
2018-04-02T13:45:09.492Z,1.13
2018-04-02T13:47:36.759Z,1.00
2018-04-02T13:50:04.047Z,0.77
2018-04-02T13:52:31.310Z,1.07
2018-04-02T13:54:58.590Z,0.90
2018-04-02T13:57:25.859Z,1.73
2018-04-02T13:59:53.179Z,0.83
2018-04-02T14:02:20.455Z,1.20
2018-04-02T14:04:47.785Z,1.67
2018-04-02T14:07:15.053Z,1.07
2018-04-02T14:09:42.364Z,0.90
2018-04-02T14:12:09.701Z,1.53
2018-04-02T14:14:37.222Z,2.60
2018-04-02T14:17:04.514Z,1.23
2018-04-02T14:19:31.813Z,1.37
2018-04-02T14:21:59.118Z,1.07
2018-04-02T14:24:26.395Z,1.50
2018-04-02T14:26:53.685Z,1.63
2018-04-02T14:29:20.959Z,1.60
2018-04-02T14:34:33.344Z,0.70
2018-04-02T14:37:00.640Z,1.07
2018-04-02T14:39:27.938Z,0.90
2018-04-02T14:41:55.230Z,1.07
2018-04-02T14:44:22.565Z,1.43
2018-04-02T14:46:49.858Z,1.30
2018-04-02T14:49:17.168Z,1.20
2018-04-02T14:51:44.566Z,1.00
2018-04-02T14:54:11.829Z,0.77
2018-04-02T14:56:39.114Z,0.80
2018-04-02T14:59:06.400Z,0.70
2018-04-02T15:01:33.665Z,0.73
2018-04-02T15:04:01.132Z,0.60
2018-04-02T15:06:28.442Z,0.90
2018-04-02T15:08:55.742Z,0.80
2018-04-02T15:11:23.105Z,1.03
2018-04-02T15:13:50.379Z,1.23
2018-04-02T15:16:17.676Z,0.83
2018-04-02T15:18:44.957Z,0.90
2018-04-02T15:21:12.231Z,1.00
2018-04-02T15:23:39.510Z,0.60
2018-04-02T15:26:06.787Z,1.70
2018-04-02T15:28:34.061Z,0.70
2018-04-02T15:31:01.355Z,0.80
2018-04-02T15:33:28.633Z,0.77
2018-04-02T15:35:55.964Z,0.90
2018-04-02T15:38:23.342Z,1.17
2018-04-02T15:40:50.631Z,1.30
2018-04-02T15:43:17.903Z,0.70
2018-04-02T15:45:45.187Z,0.80
2018-04-02T15:48:12.491Z,1.30
2018-04-02T15:50:39.748Z,1.43
2018-04-02T15:53:07.039Z,0.90
2018-04-02T15:55:34.850Z,0.70
2018-04-02T15:58:02.122Z,0.80
2018-04-02T16:00:29.399Z,0.90
2018-04-02T16:02:56.705Z,0.80
2018-04-02T16:05:23.997Z,0.83
2018-04-02T16:07:51.323Z,1.00
2018-04-02T16:10:18.660Z,0.67
2018-04-02T16:12:45.940Z,1.23
2018-04-02T16:15:13.225Z,0.73
2018-04-02T16:17:40.505Z,1.43
2018-04-02T16:20:07.796Z,0.70
2018-04-02T16:22:35.087Z,1.00
2018-04-02T16:25:02.371Z,1.27
2018-04-02T16:27:29.658Z,1.00
2018-04-02T16:29:56.965Z,1.80
2018-04-02T16:32:24.316Z,1.53
2018-04-02T16:34:51.613Z,1.73
2018-04-02T16:37:18.880Z,1.30
2018-04-02T16:39:46.173Z,0.90
2018-04-02T16:42:13.454Z,0.87
2018-04-02T16:44:40.805Z,1.10
2018-04-02T16:47:08.083Z,1.17
2018-04-02T16:49:37.280Z,2.87
2018-04-02T16:52:04.580Z,1.90
2018-04-02T16:54:31.928Z,2.43
2018-04-02T16:56:59.179Z,2.40
2018-04-02T16:59:26.467Z,2.20
2018-04-02T17:01:53.751Z,1.00
2018-04-02T17:04:21.056Z,1.30
2018-04-02T17:06:48.320Z,1.80
2018-04-02T17:09:16.340Z,1.30
2018-04-02T17:11:43.623Z,1.60
2018-04-02T17:14:10.910Z,1.00
2018-04-02T17:16:38.210Z,1.00
2018-04-02T17:19:05.470Z,1.00
2018-04-02T17:21:32.767Z,1.50
2018-04-02T17:24:00.039Z,1.80
2018-04-02T17:26:27.331Z,2.37
2018-04-02T17:28:54.625Z,1.63
2018-04-02T17:31:21.901Z,3.73
2018-04-02T17:33:49.173Z,2.40
2018-04-02T17:36:17.347Z,1.70
2018-04-02T17:38:44.623Z,1.77
2018-04-02T17:41:11.925Z,2.03
2018-04-02T17:43:39.195Z,1.37
2018-04-02T17:46:06.470Z,1.53
2018-04-02T17:48:33.769Z,1.40
2018-04-02T17:51:01.858Z,1.50
2018-04-02T17:53:29.141Z,2.20
2018-04-02T17:55:56.398Z,1.63
2018-04-02T17:58:23.707Z,1.77
2018-04-02T18:00:50.970Z,2.23
2018-04-02T18:03:18.244Z,3.47
2018-04-02T18:05:45.554Z,3.07
2018-04-02T18:08:12.844Z,3.97
2018-04-02T18:10:40.115Z,3.83
2018-04-02T18:13:07.393Z,2.73
2018-04-02T18:15:34.667Z,2.00
2018-04-02T18:18:01.976Z,2.27
2018-04-02T18:20:29.250Z,1.80
2018-04-02T18:22:56.552Z,2.43
2018-04-02T18:25:23.863Z,3.07
2018-04-02T18:27:51.114Z,1.63
2018-04-02T18:30:18.374Z,1.30
2018-04-02T18:32:45.680Z,2.27
2018-04-02T18:35:13.887Z,2.17
2018-04-02T18:37:41.219Z,3.30
2018-04-02T18:40:08.510Z,2.43
2018-04-02T18:42:35.787Z,6.60
2018-04-02T18:45:03.118Z,2.67
2018-04-02T18:47:30.334Z,2.70
2018-04-02T18:49:57.630Z,2.50
2018-04-02T18:52:24.914Z,1.97
2018-04-02T18:54:52.254Z,2.17
2018-04-02T18:57:20.214Z,2.57
2018-04-02T18:59:48.312Z,1.90
2018-04-02T19:02:15.592Z,1.83
2018-04-02T19:04:42.872Z,1.97
2018-04-02T19:07:10.155Z,2.03
2018-04-02T19:09:37.440Z,2.93
2018-04-02T19:12:04.743Z,3.20
2018-04-02T19:14:32.018Z,3.07
2018-04-02T19:16:59.296Z,4.07
2018-04-02T19:19:26.601Z,2.10
2018-04-02T19:21:54.956Z,2.63
2018-04-02T19:24:22.267Z,1.60
2018-04-02T19:26:49.563Z,2.10
2018-04-02T19:29:16.876Z,2.10
2018-04-02T19:31:44.168Z,2.00
2018-04-02T19:34:11.441Z,2.07
2018-04-02T19:36:38.720Z,2.10
2018-04-02T19:39:06.008Z,2.20
2018-04-02T19:44:32.007Z,3.57
2018-04-02T19:46:59.279Z,5.07
2018-04-02T19:49:26.563Z,4.07
2018-04-02T19:51:53.859Z,4.00
2018-04-02T19:54:21.358Z,1.83
2018-04-02T19:56:48.574Z,2.17
2018-04-02T19:59:15.856Z,2.23
2018-04-02T20:01:43.506Z,1.23
2018-04-02T20:04:10.783Z,1.67
2018-04-02T20:06:38.055Z,1.70
2018-04-02T20:09:05.406Z,1.37
2018-04-02T20:11:32.705Z,1.80
2018-04-02T20:13:59.980Z,2.20
2018-04-02T20:16:27.367Z,2.50
2018-04-02T20:18:54.661Z,3.40
2018-04-02T20:21:21.928Z,4.37
2018-04-02T20:23:49.206Z,3.57
2018-04-02T20:26:17.395Z,1.63
2018-04-02T20:28:44.632Z,1.60
2018-04-02T20:31:11.974Z,1.53
2018-04-02T20:33:39.246Z,1.60
2018-04-02T20:36:06.538Z,1.50
2018-04-02T20:38:33.817Z,1.53
2018-04-02T20:41:01.093Z,1.80
2018-04-02T20:43:28.366Z,1.90
2018-04-02T20:45:55.709Z,3.17
2018-04-02T20:48:22.960Z,1.57
2018-04-02T20:50:50.234Z,2.77
2018-04-02T20:53:17.504Z,4.03
2018-04-02T20:55:44.777Z,6.30
2018-04-02T20:58:12.060Z,1.83
2018-04-02T21:00:39.318Z,1.80
2018-04-02T21:03:06.615Z,2.50
2018-04-02T21:05:33.900Z,1.40
2018-04-02T21:08:01.216Z,1.90
2018-04-02T21:10:28.483Z,1.43
2018-04-02T21:12:55.822Z,1.63
2018-04-02T21:15:23.103Z,1.30
2018-04-02T21:17:50.385Z,2.00
2018-04-02T21:20:17.679Z,2.17
2018-04-02T21:22:44.960Z,1.90
2018-04-02T21:25:12.278Z,1.87
2018-04-02T21:27:39.567Z,1.70
2018-04-02T21:30:06.827Z,5.53
2018-04-02T21:32:34.104Z,5.83
2018-04-02T21:35:01.395Z,6.70
2018-04-02T21:37:28.658Z,6.10
2018-04-02T21:39:55.948Z,6.37
2018-04-02T21:42:23.213Z,5.03
2018-04-02T21:44:50.486Z,7.37
2018-04-02T21:47:18.510Z,5.43
2018-04-02T21:49:45.803Z,8.73
2018-04-02T21:52:13.067Z,2.93
2018-04-02T21:54:40.361Z,2.30
2018-04-02T21:57:07.649Z,3.53
2018-04-02T21:59:34.927Z,2.30
2018-04-02T22:02:02.192Z,1.47
2018-04-02T22:04:29.519Z,2.70
2018-04-02T22:07:02.503Z,1.83
2018-04-02T22:09:29.781Z,1.47
2018-04-02T22:11:57.075Z,1.63
2018-04-02T22:14:24.355Z,1.53
2018-04-02T22:16:51.641Z,1.90
2018-04-02T22:19:18.904Z,2.10
2018-04-02T22:21:46.178Z,1.97
2018-04-02T22:24:13.804Z,1.70
2018-04-02T22:26:41.084Z,1.30
2018-04-02T22:29:08.346Z,1.30
2018-04-02T22:31:35.635Z,1.67
2018-04-02T22:34:02.896Z,1.37
2018-04-02T22:36:30.300Z,1.90
2018-04-02T22:38:57.587Z,1.90
2018-04-02T22:41:24.887Z,2.17
2018-04-02T22:43:52.169Z,3.50
2018-04-02T22:46:19.524Z,4.30
2018-04-02T22:48:46.819Z,4.90
2018-04-02T22:51:14.526Z,8.03
2018-04-02T22:53:41.858Z,4.50
2018-04-02T22:56:09.126Z,1.80
2018-04-02T22:58:36.420Z,1.57
2018-04-02T23:01:03.687Z,1.60
2018-04-02T23:03:30.995Z,1.73
2018-04-02T23:05:58.498Z,2.40
2018-04-02T23:08:25.789Z,1.47
2018-04-02T23:10:53.131Z,1.53
2018-04-02T23:13:20.410Z,1.30
2018-04-02T23:15:47.693Z,2.20
2018-04-02T23:18:14.965Z,2.53
2018-04-02T23:20:42.276Z,3.07
2018-04-02T23:23:09.537Z,4.40
2018-04-02T23:25:36.811Z,3.73
2018-04-02T23:28:04.087Z,2.90
2018-04-02T23:30:31.353Z,4.00
2018-04-02T23:32:58.654Z,2.20
2018-04-02T23:35:25.924Z,1.63
2018-04-02T23:37:53.392Z,1.80
2018-04-02T23:40:20.648Z,1.70
2018-04-02T23:42:47.933Z,1.60
2018-04-02T23:45:15.186Z,1.20
2018-04-02T23:47:42.479Z,1.70
2018-04-02T23:50:09.755Z,1.23
2018-04-02T23:52:37.040Z,1.50
2018-04-02T23:55:04.317Z,2.37
2018-04-02T23:57:31.596Z,1.80
2018-04-02T23:59:58.858Z,1.53
